Time;durP1;ratioP1;P1;durP2;ratioP2;P2;SDS_P1;SDS_P2;PMS_P1;PMS_P2;Temp;Humidity;BMP_temperature;BMP_pressure;BME280_temperature;BME280_humidity;BME280_pressure;Samples;Min_cycle;Max_cycle;Signal;HPM_P1;HPM_P2
2021/07/02 00:01:04;;;;;;;;;;;;;;;;;;4970555;28;19922;-83
2021/07/02 00:03:29;;;;;;;;;;;;;;;;;;4973049;28;19926;-83
2021/07/02 00:05:55;;;;;;;;;;;;;;;;;;4956907;28;19922;-84
2021/07/02 00:08:25;;;;;;;;;;;;;;;;;;4984766;28;19918;-83
2021/07/02 00:10:50;;;;;;;;;;;;;;;;;;4956293;28;19933;-84
2021/07/02 00:13:15;;;;;;;;;;;;;;;;;;4956658;28;20009;-83
2021/07/02 00:15:41;;;;;;;;;;;;;;;;;;4956937;29;19921;-85
2021/07/02 00:18:06;;;;;;;;;;;;;;;;;;4956959;28;19918;-83
2021/07/02 00:20:31;;;;;;;;;;;;;;;;;;4973462;28;19922;-84
2021/07/02 00:22:56;;;;;;;;;;;;;;;;;;4982459;28;19921;-83
2021/07/02 00:25:21;;;;;;;;;;;;;;;;;;4976426;28;19919;-83
2021/07/02 00:27:47;;;;;;;;;;;;;;;;;;4967302;28;19923;-83
2021/07/02 00:30:12;;;;;;;;;;;;;;;;;;4958281;28;20297;-83
2021/07/02 00:32:37;;;;;;;;;;;;;;;;;;4973294;28;19918;-83
2021/07/02 00:35:03;;;;;;;;;;;;;;;;;;4957508;28;19918;-83
2021/07/02 00:37:28;;;;;;;;;;;;;;;;;;4967754;28;19964;-83
2021/07/02 00:39:53;;;;;;;;;;;;;;;;;;4972893;28;20338;-83
2021/07/02 00:42:18;;;;;;;;;;;;;;;;;;4987263;28;19926;-84
2021/07/02 00:44:44;;;;;;;;;;;;;;;;;;4964188;28;20406;-84
2021/07/02 00:47:10;;;;;;;;;;;;;;;;;;4959058;28;20013;-84
2021/07/02 00:49:35;;;;;;;;;;;;;;;;;;4972389;28;19946;-85
2021/07/02 00:52:01;;;;;;;;;;;;;;;;;;4973018;28;20328;-83
2021/07/02 01:09:42;;;;;;;;;;;;;;;;;;4978050;28;19968;-83
2021/07/02 01:12:09;;;;;;;;;;;;;;;;;;4960003;28;19915;-84
2021/07/02 01:14:34;;;;;;;;;;;;;;;;;;4976246;28;19921;-83
2021/07/02 01:16:59;;;;;;;;;;;;;;;;;;4986768;28;20005;-83
2021/07/02 01:19:24;;;;;;;;;;;;;;;;;;4978614;28;20411;-83
2021/07/02 01:21:53;;;;;;;;;;;;;;;;;;4975536;28;19918;-83
2021/07/02 01:24:18;;;;;;;;;;;;;;;;;;4975431;28;20440;-84
2021/07/02 01:26:44;;;;;;;;;;;;;;;;;;4984617;28;19922;-83
2021/07/02 01:29:09;;;;;;;;;;;;;;;;;;4985598;28;19922;-84
2021/07/02 01:31:35;;;;;;;;;;;;;;;;;;4975726;28;19926;-83
2021/07/02 01:34:00;;;;;;;;;;;;;;;;;;4959522;28;20263;-83
2021/07/02 01:36:25;;;;;;;;;;;;;;;;;;4975690;28;19961;-84
2021/07/02 01:38:50;;;;;;;;;;;;;;;;;;4975063;28;19970;-84
2021/07/02 01:41:16;;;;;;;;;;;;;;;;;;4975029;28;19928;-84
2021/07/02 01:43:41;;;;;;;;;;;;;;;;;;4975465;28;19969;-84
2021/07/02 01:46:06;;;;;;;;;;;;;;;;;;4978933;28;19973;-84
2021/07/02 01:48:31;;;;;;;;;;;;;;;;;;4978756;28;20390;-83
2021/07/02 01:50:57;;;;;;;;;;;;;;;;;;4975071;28;20378;-83
2021/07/02 01:53:22;;;;;;;;;;;;;;;;;;4959910;28;20341;-83
2021/07/02 01:55:47;;;;;;;;;;;;;;;;;;4959148;28;19918;-83
2021/07/02 01:58:12;;;;;;;;;;;;;;;;;;4975678;28;20329;-83
2021/07/02 02:00:37;;;;;;;;;;;;;;;;;;4973913;28;19923;-83
2021/07/02 02:03:03;;;;;;;;;;;;;;;;;;4958417;28;19919;-83
2021/07/02 02:05:28;;;;;;;;;;;;;;;;;;4974000;28;20452;-83
2021/07/02 02:07:53;;;;;;;;;;;;;;;;;;4957818;28;20377;-84
2021/07/02 02:10:18;;;;;;;;;;;;;;;;;;4973951;28;20433;-83
2021/07/02 02:12:43;;;;;;;;;;;;;;;;;;4973933;28;19919;-83
2021/07/02 02:15:09;;;;;;;;;;;;;;;;;;4971626;28;20015;-83
2021/07/02 02:17:34;;;;;;;;;;;;;;;;;;4973831;28;19923;-82
2021/07/02 02:19:59;;;;;;;;;;;;;;;;;;4973328;28;19969;-83
2021/07/02 02:22:25;;;;;;;;;;;;;;;;;;4965539;28;19950;-83
2021/07/02 02:24:50;;;;;;;;;;;;;;;;;;4963900;28;19925;-83
2021/07/02 02:27:15;;;;;;;;;;;;;;;;;;4968747;28;20289;-83
2021/07/02 02:29:40;;;;;;;;;;;;;;;;;;4973272;28;20401;-84
2021/07/02 02:32:06;;;;;;;;;;;;;;;;;;4957910;28;19930;-84
2021/07/02 02:34:31;;;;;;;;;;;;;;;;;;4972832;28;19945;-84
2021/07/02 02:36:56;;;;;;;;;;;;;;;;;;5018409;23;20281;-77
2021/07/02 02:39:21;;;;;;;;;;;;;;;;;;5013574;28;19921;-77
2021/07/02 02:41:47;;;;;;;;;;;;;;;;;;5029690;28;19925;-77
2021/07/02 02:44:12;;;;;;;;;;;;;;;;;;5014207;28;19925;-77
2021/07/02 02:46:37;;;;;;;;;;;;;;;;;;5013067;28;19913;-77
2021/07/02 02:49:02;;;;;;;;;;;;;;;;;;5013466;28;19917;-77
2021/07/02 02:51:28;;;;;;;;;;;;;;;;;;5035887;28;19913;-77
2021/07/02 02:53:53;;;;;;;;;;;;;;;;;;5012792;28;20384;-77
2021/07/02 02:56:18;;;;;;;;;;;;;;;;;;5013811;28;21035;-77
2021/07/02 02:58:43;;;;;;;;;;;;;;;;;;5013073;28;20380;-77
2021/07/02 03:01:08;;;;;;;;;;;;;;;;;;5029259;28;19959;-77
2021/07/02 03:03:34;;;;;;;;;;;;;;;;;;5029342;28;19960;-77
2021/07/02 03:05:59;;;;;;;;;;;;;;;;;;5029256;28;19925;-77
2021/07/02 03:08:24;;;;;;;;;;;;;;;;;;5029026;28;19921;-77
2021/07/02 03:10:49;;;;;;;;;;;;;;;;;;5030239;28;19964;-77
2021/07/02 03:13:14;;;;;;;;;;;;;;;;;;5029541;28;19956;-77
2021/07/02 03:15:39;;;;;;;;;;;;;;;;;;5028758;28;20432;-77
2021/07/02 03:18:05;;;;;;;;;;;;;;;;;;5028187;28;19922;-77
2021/07/02 03:20:30;;;;;;;;;;;;;;;;;;4995899;28;19914;-77
2021/07/02 03:22:55;;;;;;;;;;;;;;;;;;4995744;28;19972;-77
2021/07/02 03:25:20;;;;;;;;;;;;;;;;;;5028746;28;20368;-77
2021/07/02 03:27:46;;;;;;;;;;;;;;;;;;5012045;28;19975;-77
2021/07/02 03:30:11;;;;;;;;;;;;;;;;;;5012136;28;19918;-77
2021/07/02 03:32:36;;;;;;;;;;;;;;;;;;5012037;28;19956;-77
2021/07/02 03:35:02;;;;;;;;;;;;;;;;;;4995720;28;19917;-77
2021/07/02 03:37:27;;;;;;;;;;;;;;;;;;5012803;28;20023;-77
2021/07/02 03:39:54;;;;;;;;;;;;;;;;;;5028489;28;19913;-77
2021/07/02 03:42:19;;;;;;;;;;;;;;;;;;5029333;28;19957;-77
2021/07/02 03:44:44;;;;;;;;;;;;;;;;;;5028760;28;19971;-77
2021/07/02 03:47:09;;;;;;;;;;;;;;;;;;5011996;28;19921;-77
2021/07/02 03:49:34;;;;;;;;;;;;;;;;;;5028452;28;19944;-77
2021/07/02 03:52:00;;;;;;;;;;;;;;;;;;5011843;28;19944;-77
2021/07/02 03:54:25;;;;;;;;;;;;;;;;;;5028428;28;19976;-77
2021/07/02 03:59:34;;;;;;;;;;;;;;;;;;5033671;28;20014;-77
2021/07/02 04:01:59;;;;;;;;;;;;;;;;;;5012994;28;20376;-77
2021/07/02 04:04:24;;;;;;;;;;;;;;;;;;5018844;28;19971;-77
2021/07/02 04:06:50;;;;;;;;;;;;;;;;;;5028400;28;20011;-77
2021/07/02 04:09:15;;;;;;;;;;;;;;;;;;5013049;28;19927;-77
2021/07/02 04:11:40;;;;;;;;;;;;;;;;;;5028413;28;19917;-77
2021/07/02 04:14:05;;;;;;;;;;;;;;;;;;4995243;28;19917;-77
2021/07/02 04:16:31;;;;;;;;;;;;;;;;;;5012739;28;19917;-77
2021/07/02 04:18:56;;;;;;;;;;;;;;;;;;5012535;28;19941;-77
2021/07/02 04:21:21;;;;;;;;;;;;;;;;;;5011468;28;19980;-77
2021/07/02 04:23:46;;;;;;;;;;;;;;;;;;5028094;28;20398;-77
2021/07/02 04:26:12;;;;;;;;;;;;;;;;;;5011371;28;19917;-77
2021/07/02 04:28:37;;;;;;;;;;;;;;;;;;5013998;28;19941;-77
2021/07/02 04:31:02;;;;;;;;;;;;;;;;;;5016766;28;20379;-77
2021/07/02 04:33:27;;;;;;;;;;;;;;;;;;5015565;28;19923;-78
2021/07/02 04:35:52;;;;;;;;;;;;;;;;;;5031867;28;19965;-77
2021/07/02 04:38:18;;;;;;;;;;;;;;;;;;5016359;28;19917;-77
2021/07/02 04:40:43;;;;;;;;;;;;;;;;;;5016834;28;19959;-77
2021/07/02 04:43:08;;;;;;;;;;;;;;;;;;5031864;28;19984;-77
2021/07/02 04:45:33;;;;;;;;;;;;;;;;;;5015752;28;20003;-77
2021/07/02 04:47:58;;;;;;;;;;;;;;;;;;5031700;28;19917;-77
2021/07/02 04:50:24;;;;;;;;;;;;;;;;;;5032218;28;19918;-77
2021/07/02 04:52:49;;;;;;;;;;;;;;;;;;5031787;28;19973;-77
2021/07/02 04:55:14;;;;;;;;;;;;;;;;;;5015663;28;20273;-77
2021/07/02 04:57:39;;;;;;;;;;;;;;;;;;5034265;28;19917;-77
2021/07/02 05:00:05;;;;;;;;;;;;;;;;;;4998304;28;20030;-77
2021/07/02 05:02:45;;;;;;;;;;;;;;;;;;5031319;28;20532;-77
2021/07/02 05:05:38;;;;;;;;;;;;;;;;;;5035377;28;20392;-77
2021/07/02 05:08:04;;;;;;;;;;;;;;;;;;5016699;28;19918;-77
2021/07/02 05:10:29;;;;;;;;;;;;;;;;;;5031934;28;20334;-77
2021/07/02 05:12:54;;;;;;;;;;;;;;;;;;5032122;28;19918;-77
2021/07/02 05:15:19;;;;;;;;;;;;;;;;;;5034040;28;19964;-77
2021/07/02 05:17:45;;;;;;;;;;;;;;;;;;4998632;28;19971;-77
2021/07/02 05:20:10;;;;;;;;;;;;;;;;;;5031362;28;19925;-77
2021/07/02 05:22:35;;;;;;;;;;;;;;;;;;5035459;28;19926;-77
2021/07/02 05:25:01;;;;;;;;;;;;;;;;;;5036111;28;19920;-77
2021/07/02 05:27:26;;;;;;;;;;;;;;;;;;5031104;28;19921;-77
2021/07/02 05:29:51;;;;;;;;;;;;;;;;;;4997684;28;20369;-77
2021/07/02 05:32:16;;;;;;;;;;;;;;;;;;4997991;28;19932;-77
2021/07/02 05:34:41;;;;;;;;;;;;;;;;;;5031507;28;19980;-77
2021/07/02 05:37:06;;;;;;;;;;;;;;;;;;5014229;28;19944;-77
2021/07/02 05:39:32;;;;;;;;;;;;;;;;;;4999762;28;19921;-77
2021/07/02 05:41:57;;;;;;;;;;;;;;;;;;5015362;28;19928;-77
2021/07/02 05:44:22;;;;;;;;;;;;;;;;;;5034378;28;19917;-77
2021/07/02 05:46:47;;;;;;;;;;;;;;;;;;5018763;28;19980;-77
2021/07/02 05:49:13;;;;;;;;;;;;;;;;;;5030648;28;20332;-77
2021/07/02 05:51:40;;;;;;;;;;;;;;;;;;5015530;28;20008;-77
2021/07/02 05:54:05;;;;;;;;;;;;;;;;;;5015095;28;19968;-77
2021/07/02 05:59:33;;;;;;;;;;;;;;;;;;5015362;28;19936;-77
2021/07/02 06:01:58;;;;;;;;;;;;;;;;;;5031644;28;20388;-77
2021/07/02 06:04:23;;;;;;;;;;;;;;;;;;5030908;28;19940;-77
2021/07/02 06:06:49;;;;;;;;;;;;;;;;;;5038741;28;19953;-77
2021/07/02 06:09:14;;;;;;;;;;;;;;;;;;5020634;28;19921;-77
2021/07/02 06:11:39;;;;;;;;;;;;;;;;;;5018865;28;20023;-77
2021/07/02 06:14:04;;;;;;;;;;;;;;;;;;5033091;28;20035;-77
2021/07/02 06:16:30;;;;;;;;;;;;;;;;;;5030313;28;20368;-77
2021/07/02 06:18:55;;;;;;;;;;;;;;;;;;5030351;28;19928;-77
2021/07/02 06:21:20;;;;;;;;;;;;;;;;;;5030375;28;20015;-77
2021/07/02 06:23:45;;;;;;;;;;;;;;;;;;5029866;28;19921;-77
2021/07/02 06:26:11;;;;;;;;;;;;;;;;;;5014628;28;19918;-77
2021/07/02 06:28:37;;;;;;;;;;;;;;;;;;5029407;28;19917;-77
2021/07/02 06:31:02;;;;;;;;;;;;;;;;;;5033410;28;19924;-77
2021/07/02 06:33:28;;;;;;;;;;;;;;;;;;5015611;28;19913;-77
2021/07/02 06:35:53;;;;;;;;;;;;;;;;;;5022328;28;19924;-77
2021/07/02 06:38:19;;;;;;;;;;;;;;;;;;5014547;28;19917;-77
2021/07/02 06:40:44;;;;;;;;;;;;;;;;;;5013191;28;19956;-77
2021/07/02 06:43:10;;;;;;;;;;;;;;;;;;5010478;28;19996;-77
2021/07/02 06:45:35;;;;;;;;;;;;;;;;;;5015808;28;20012;-77
2021/07/02 06:48:01;;;;;;;;;;;;;;;;;;4996424;28;19921;-77
2021/07/02 06:50:27;;;;;;;;;;;;;;;;;;5012786;28;19917;-77
2021/07/02 06:52:52;;;;;;;;;;;;;;;;;;5029576;28;19920;-77
2021/07/02 06:55:18;;;;;;;;;;;;;;;;;;5029710;28;19914;-77
2021/07/02 06:57:43;;;;;;;;;;;;;;;;;;5029122;28;20002;-77
2021/07/02 07:00:08;;;;;;;;;;;;;;;;;;5013834;28;19921;-77
2021/07/02 07:02:34;;;;;;;;;;;;;;;;;;5012611;28;19928;-77
2021/07/02 07:04:59;;;;;;;;;;;;;;;;;;5013830;28;19975;-77
2021/07/02 07:07:24;;;;;;;;;;;;;;;;;;5028967;28;20460;-77
2021/07/02 07:09:49;;;;;;;;;;;;;;;;;;5028997;28;19918;-77
2021/07/02 07:12:15;;;;;;;;;;;;;;;;;;5028960;28;19921;-77
2021/07/02 07:14:40;;;;;;;;;;;;;;;;;;5013715;28;19924;-77
2021/07/02 07:17:10;;;;;;;;;;;;;;;;;;5028822;28;20315;-77
2021/07/02 07:19:35;;;;;;;;;;;;;;;;;;5028260;28;19918;-77
2021/07/02 07:22:01;;;;;;;;;;;;;;;;;;5035868;28;19932;-77
2021/07/02 07:24:26;;;;;;;;;;;;;;;;;;5026089;28;19992;-77
2021/07/02 07:26:51;;;;;;;;;;;;;;;;;;4993789;28;19918;-77
2021/07/02 07:29:16;;;;;;;;;;;;;;;;;;5013860;28;19917;-77
2021/07/02 07:31:41;;;;;;;;;;;;;;;;;;5012347;28;20368;-77
2021/07/02 07:34:07;;;;;;;;;;;;;;;;;;5030342;28;19924;-77
2021/07/02 07:36:33;;;;;;;;;;;;;;;;;;5013744;28;19921;-77
2021/07/02 07:38:58;;;;;;;;;;;;;;;;;;5032632;28;19940;-77
2021/07/02 07:41:24;;;;;;;;;;;;;;;;;;5022060;28;19917;-77
2021/07/02 07:43:49;;;;;;;;;;;;;;;;;;5021241;28;19921;-77
2021/07/02 07:46:14;;;;;;;;;;;;;;;;;;5013385;28;19964;-77
2021/07/02 07:48:40;;;;;;;;;;;;;;;;;;5013508;28;19921;-77
2021/07/02 07:53:49;;;;;;;;;;;;;;;;;;5020938;28;19965;-77
2021/07/02 07:56:14;;;;;;;;;;;;;;;;;;5002117;28;20674;-77
2021/07/02 07:58:39;;;;;;;;;;;;;;;;;;5030498;28;19972;-77
2021/07/02 08:01:04;;;;;;;;;;;;;;;;;;5015552;28;19924;-77
2021/07/02 08:03:30;;;;;;;;;;;;;;;;;;5011911;28;19965;-77
2021/07/02 08:05:55;;;;;;;;;;;;;;;;;;5011981;28;20028;-78
2021/07/02 08:08:20;;;;;;;;;;;;;;;;;;5032681;28;19967;-78
2021/07/02 08:10:45;;;;;;;;;;;;;;;;;;5012181;28;19921;-78
2021/07/02 08:13:11;;;;;;;;;;;;;;;;;;5012385;28;20372;-77
2021/07/02 08:15:36;;;;;;;;;;;;;;;;;;5028569;28;19924;-77
2021/07/02 08:18:01;;;;;;;;;;;;;;;;;;5028436;28;19921;-78
2021/07/02 08:20:26;;;;;;;;;;;;;;;;;;4995672;28;20399;-78
2021/07/02 08:22:51;;;;;;;;;;;;;;;;;;5037870;28;19921;-78
2021/07/02 08:25:17;;;;;;;;;;;;;;;;;;5013294;28;20004;-78
2021/07/02 08:30:26;;;;;;;;;;;;;;;;;;5026071;28;20411;-77
2021/07/02 08:32:51;;;;;;;;;;;;;;;;;;5011609;28;19913;-77
2021/07/02 08:35:21;;;;;;;;;;;;;;;;;;5013010;28;20315;-78
2021/07/02 08:37:47;;;;;;;;;;;;;;;;;;5017611;28;19929;-77
2021/07/02 08:40:12;;;;;;;;;;;;;;;;;;5011364;28;19918;-77
2021/07/02 08:42:37;;;;;;;;;;;;;;;;;;5027596;28;20035;-78
2021/07/02 08:45:02;;;;;;;;;;;;;;;;;;5028344;28;20380;-78
2021/07/02 08:47:28;;;;;;;;;;;;;;;;;;5012245;28;19917;-77
2021/07/02 08:49:53;;;;;;;;;;;;;;;;;;5011358;28;19918;-77
2021/07/02 08:52:18;;;;;;;;;;;;;;;;;;5029146;28;20011;-77
2021/07/02 08:54:43;;;;;;;;;;;;;;;;;;5032118;28;19917;-77
2021/07/02 08:57:09;;;;;;;;;;;;;;;;;;5039902;28;19967;-77
2021/07/02 08:59:34;;;;;;;;;;;;;;;;;;5012043;28;19921;-78
2021/07/02 09:01:59;;;;;;;;;;;;;;;;;;5028986;28;19928;-78
2021/07/02 09:04:25;;;;;;;;;;;;;;;;;;5013237;28;20416;-77
2021/07/02 09:07:09;;;;;;;;;;;;;;;;;;5011466;28;20372;-78
2021/07/02 09:09:57;;;;;;;;;;;;;;;;;;5028140;28;19921;-78
2021/07/02 09:12:26;;;;;;;;;;;;;;;;;;5027891;28;19925;-78
2021/07/02 09:15:10;;;;;;;;;;;;;;;;;;5028015;28;19968;-78
2021/07/02 09:17:36;;;;;;;;;;;;;;;;;;5033456;28;19922;-78
2021/07/02 09:20:06;;;;;;;;;;;;;;;;;;5035528;28;19925;-78
2021/07/02 09:22:38;;;;;;;;;;;;;;;;;;5031623;28;19928;-78
2021/07/02 09:25:03;;;;;;;;;;;;;;;;;;5021354;28;19918;-78
2021/07/02 09:27:33;;;;;;;;;;;;;;;;;;5031427;28;20384;-78
2021/07/02 09:30:07;;;;;;;;;;;;;;;;;;5014955;28;19918;-78
2021/07/02 09:32:32;;;;;;;;;;;;;;;;;;5031626;28;20388;-78
2021/07/02 09:35:01;;;;;;;;;;;;;;;;;;4999052;28;19917;-78
2021/07/02 09:37:38;;;;;;;;;;;;;;;;;;5028150;28;19917;-78
2021/07/02 09:40:21;;;;;;;;;;;;;;;;;;5013938;28;20020;-78
2021/07/02 09:42:47;;;;;;;;;;;;;;;;;;5014571;28;19922;-78
2021/07/02 09:45:12;;;;;;;;;;;;;;;;;;4998571;28;19940;-78
2021/07/02 09:47:37;;;;;;;;;;;;;;;;;;5016056;28;19917;-78
2021/07/02 09:50:13;;;;;;;;;;;;;;;;;;5014681;28;19913;-78
2021/07/02 09:52:54;;;;;;;;;;;;;;;;;;5031179;28;20008;-78
2021/07/02 09:55:21;;;;;;;;;;;;;;;;;;5047768;28;19913;-78
2021/07/02 09:57:46;;;;;;;;;;;;;;;;;;5033279;28;19971;-78
2021/07/02 10:00:12;;;;;;;;;;;;;;;;;;5047866;28;20347;-78
2021/07/02 10:02:37;;;;;;;;;;;;;;;;;;5047071;22;19918;-81
2021/07/02 10:05:03;;;;;;;;;;;;;;;;;;4995235;28;19965;-84
2021/07/02 10:07:28;;;;;;;;;;;;;;;;;;5002976;28;19921;-84
2021/07/02 10:09:53;;;;;;;;;;;;;;;;;;4968990;28;19965;-83
2021/07/02 10:12:20;;;;;;;;;;;;;;;;;;4952110;28;19921;-83
2021/07/02 10:14:46;;;;;;;;;;;;;;;;;;4985557;28;19918;-84
2021/07/02 10:17:11;;;;;;;;;;;;;;;;;;4970859;28;19918;-84
2021/07/02 10:19:36;;;;;;;;;;;;;;;;;;4968626;28;19925;-84
2021/07/02 10:22:01;;;;;;;;;;;;;;;;;;4962091;28;20386;-84
2021/07/02 10:24:26;;;;;;;;;;;;;;;;;;4985236;28;19942;-83
2021/07/02 10:26:52;;;;;;;;;;;;;;;;;;4958788;28;20270;-82
2021/07/02 10:29:17;;;;;;;;;;;;;;;;;;4981027;28;19922;-82
2021/07/02 10:31:42;;;;;;;;;;;;;;;;;;4970619;28;19922;-82
2021/07/02 10:34:07;;;;;;;;;;;;;;;;;;4977007;28;19918;-83
2021/07/02 10:36:34;;;;;;;;;;;;;;;;;;4979365;28;19922;-83
2021/07/02 10:38:59;;;;;;;;;;;;;;;;;;4944484;29;20029;-82
2021/07/02 10:41:30;;;;;;;;;;;;;;;;;;4960581;29;19953;-82
2021/07/02 10:43:55;;;;;;;;;;;;;;;;;;4961151;29;19919;-82
2021/07/02 10:46:21;;;;;;;;;;;;;;;;;;4962678;29;19921;-82
2021/07/02 10:48:53;;;;;;;;;;;;;;;;;;4947549;28;19918;-81
2021/07/02 10:51:31;;;;;;;;;;;;;;;;;;4964217;28;19925;-82
2021/07/02 10:54:15;;;;;;;;;;;;;;;;;;4980541;28;19969;-80
2021/07/02 10:56:46;;;;;;;;;;;;;;;;;;4979516;28;19914;-81
2021/07/02 10:59:15;;;;;;;;;;;;;;;;;;4964266;28;19941;-82
2021/07/02 11:01:59;;;;;;;;;;;;;;;;;;4988004;28;19918;-82
2021/07/02 11:04:32;;;;;;;;;;;;;;;;;;4977768;28;20301;-82
2021/07/02 11:06:57;;;;;;;;;;;;;;;;;;4986278;28;19925;-81
2021/07/02 11:09:29;;;;;;;;;;;;;;;;;;4964031;28;19922;-82
2021/07/02 11:12:10;;;;;;;;;;;;;;;;;;4958906;28;19923;-81
2021/07/02 11:17:22;;;;;;;;;;;;;;;;;;4958748;28;20356;-81
2021/07/02 11:19:48;;;;;;;;;;;;;;;;;;4953618;29;19944;-81
2021/07/02 11:22:22;;;;;;;;;;;;;;;;;;4958966;29;19919;-81
2021/07/02 11:24:58;;;;;;;;;;;;;;;;;;4974262;28;19929;-82
2021/07/02 11:27:35;;;;;;;;;;;;;;;;;;4973602;28;19918;-82
2021/07/02 11:30:02;;;;;;;;;;;;;;;;;;4991372;28;20428;-80
2021/07/02 11:32:31;;;;;;;;;;;;;;;;;;4961016;28;19914;-80
2021/07/02 11:35:15;;;;;;;;;;;;;;;;;;4968236;28;19992;-79
2021/07/02 11:38:01;;;;;;;;;;;;;;;;;;4967399;28;19941;-79
2021/07/02 11:40:27;;;;;;;;;;;;;;;;;;4997954;28;20040;-80
2021/07/02 11:42:52;;;;;;;;;;;;;;;;;;4974843;28;19949;-79
2021/07/02 11:45:17;;;;;;;;;;;;;;;;;;4955820;28;19923;-80
2021/07/02 11:47:42;;;;;;;;;;;;;;;;;;4984787;28;20447;-80
2021/07/02 11:50:07;;;;;;;;;;;;;;;;;;4977900;28;19921;-80
2021/07/02 11:52:36;;;;;;;;;;;;;;;;;;4977307;28;20505;-79
2021/07/02 11:55:01;;;;;;;;;;;;;;;;;;4970427;28;19922;-79
2021/07/02 11:57:26;;;;;;;;;;;;;;;;;;4977704;28;19972;-81
2021/07/02 12:00:03;;;;;;;;;;;;;;;;;;4978196;28;20365;-83
2021/07/02 12:02:29;;;;;;;;;;;;;;;;;;4995600;28;19926;-83
2021/07/02 12:05:02;;;;;;;;;;;;;;;;;;4966641;28;19965;-83
2021/07/02 12:07:27;;;;;;;;;;;;;;;;;;4973438;28;19925;-83
2021/07/02 12:09:52;;;;;;;;;;;;;;;;;;4979796;28;20290;-83
2021/07/02 12:12:18;;;;;;;;;;;;;;;;;;4977303;28;20389;-84
2021/07/02 12:14:45;;;;;;;;;;;;;;;;;;4962894;28;19973;-84
2021/07/02 12:17:10;;;;;;;;;;;;;;;;;;4984749;28;19944;-84
2021/07/02 12:19:36;;;;;;;;;;;;;;;;;;4964626;28;20392;-84
2021/07/02 12:22:04;;;;;;;;;;;;;;;;;;4964492;28;20381;-82
2021/07/02 12:24:30;;;;;;;;;;;;;;;;;;4996266;28;19924;-84
2021/07/02 12:26:55;;;;;;;;;;;;;;;;;;4976201;28;20388;-85
2021/07/02 12:29:21;;;;;;;;;;;;;;;;;;4961197;28;19922;-85
2021/07/02 12:31:47;;;;;;;;;;;;;;;;;;4979388;28;19918;-84
2021/07/02 12:34:16;;;;;;;;;;;;;;;;;;4982717;28;19925;-84
2021/07/02 12:37:00;;;;;;;;;;;;;;;;;;4961811;29;19915;-84
2021/07/02 12:39:32;;;;;;;;;;;;;;;;;;4977053;28;20004;-84
2021/07/02 12:42:03;;;;;;;;;;;;;;;;;;4977970;28;19914;-84
2021/07/02 12:44:29;;;;;;;;;;;;;;;;;;4988239;28;20032;-84
2021/07/02 12:46:54;;;;;;;;;;;;;;;;;;4997377;28;19915;-84
2021/07/02 12:49:24;;;;;;;;;;;;;;;;;;4961899;28;20310;-85
2021/07/02 12:54:47;;;;;;;;;;;;;;;;;;4986059;28;20400;-85
2021/07/02 12:57:22;;;;;;;;;;;;;;;;;;4982720;28;20051;-85
2021/07/02 12:59:53;;;;;;;;;;;;;;;;;;4986257;28;20381;-84
2021/07/02 13:02:22;;;;;;;;;;;;;;;;;;5000788;28;19949;-84
2021/07/02 13:04:47;;;;;;;;;;;;;;;;;;4984141;28;19969;-84
2021/07/02 13:07:12;;;;;;;;;;;;;;;;;;4966068;28;20400;-83
2021/07/02 13:09:37;;;;;;;;;;;;;;;;;;4966464;28;19914;-83
2021/07/02 13:12:09;;;;;;;;;;;;;;;;;;4975225;28;19922;-83
2021/07/02 13:14:35;;;;;;;;;;;;;;;;;;4986155;28;19941;-81
2021/07/02 13:17:00;;;;;;;;;;;;;;;;;;4984599;28;20274;-83
2021/07/02 13:19:29;;;;;;;;;;;;;;;;;;4986030;28;19914;-83
2021/07/02 13:21:54;;;;;;;;;;;;;;;;;;4965415;28;19942;-83
2021/07/02 13:24:22;;;;;;;;;;;;;;;;;;4965589;29;19919;-83
2021/07/02 13:26:55;;;;;;;;;;;;;;;;;;4965410;29;19925;-83
2021/07/02 13:29:20;;;;;;;;;;;;;;;;;;4993305;28;20409;-83
2021/07/02 13:31:49;;;;;;;;;;;;;;;;;;4982222;28;19941;-83
2021/07/02 13:34:18;;;;;;;;;;;;;;;;;;4968523;28;19990;-83
2021/07/02 13:36:43;;;;;;;;;;;;;;;;;;4969266;28;19918;-83
2021/07/02 13:39:15;;;;;;;;;;;;;;;;;;4989004;28;19929;-83
2021/07/02 13:41:42;;;;;;;;;;;;;;;;;;4971058;28;19925;-83
2021/07/02 13:44:09;;;;;;;;;;;;;;;;;;4967483;29;19922;-80
2021/07/02 13:46:35;;;;;;;;;;;;;;;;;;4975247;28;19921;-83
2021/07/02 13:49:00;;;;;;;;;;;;;;;;;;4980645;28;19918;-81
2021/07/02 13:51:25;;;;;;;;;;;;;;;;;;4985662;28;19926;-82
2021/07/02 13:53:51;;;;;;;;;;;;;;;;;;4985359;28;19914;-83
2021/07/02 13:56:16;;;;;;;;;;;;;;;;;;5000874;28;19969;-81
2021/07/02 13:58:41;;;;;;;;;;;;;;;;;;4965387;28;19946;-89
2021/07/02 14:01:06;;;;;;;;;;;;;;;;;;4956366;28;19918;-89
2021/07/02 14:03:32;;;;;;;;;;;;;;;;;;4962114;28;20046;-89
2021/07/02 14:05:57;;;;;;;;;;;;;;;;;;4976323;28;19920;-89
2021/07/02 14:08:22;;;;;;;;;;;;;;;;;;4976618;28;19918;-89
2021/07/02 14:10:47;;;;;;;;;;;;;;;;;;4976445;28;19920;-89
2021/07/02 14:13:13;;;;;;;;;;;;;;;;;;4976317;28;19918;-90
2021/07/02 14:15:38;;;;;;;;;;;;;;;;;;4977381;28;19921;-89
2021/07/02 14:18:03;;;;;;;;;;;;;;;;;;4971823;28;19939;-89
2021/07/02 14:20:29;;;;;;;;;;;;;;;;;;4956979;28;19915;-89
2021/07/02 14:22:54;;;;;;;;;;;;;;;;;;4957107;29;19918;-89
2021/07/02 14:25:20;;;;;;;;;;;;;;;;;;4957056;28;20000;-90
2021/07/02 14:27:45;;;;;;;;;;;;;;;;;;4962893;28;19918;-86
2021/07/02 14:30:11;;;;;;;;;;;;;;;;;;4958636;29;20049;-87
2021/07/02 14:32:42;;;;;;;;;;;;;;;;;;4974943;28;19914;-88
2021/07/02 14:35:10;;;;;;;;;;;;;;;;;;4941551;29;19953;-88
2021/07/02 14:37:36;;;;;;;;;;;;;;;;;;4959656;28;19981;-89
2021/07/02 14:40:01;;;;;;;;;;;;;;;;;;4957822;29;19922;-88
2021/07/02 14:42:26;;;;;;;;;;;;;;;;;;4963146;29;19918;-86
2021/07/02 14:44:51;;;;;;;;;;;;;;;;;;4982440;28;19914;-86
2021/07/02 14:47:17;;;;;;;;;;;;;;;;;;4974999;28;19918;-89
2021/07/02 14:49:49;;;;;;;;;;;;;;;;;;4976551;28;19929;-88
2021/07/02 14:52:14;;;;;;;;;;;;;;;;;;4960364;28;19921;-89
2021/07/02 14:54:40;;;;;;;;;;;;;;;;;;4959752;28;19914;-89
2021/07/02 14:57:07;;;;;;;;;;;;;;;;;;4959877;28;19914;-89
2021/07/02 14:59:33;;;;;;;;;;;;;;;;;;4959982;28;20410;-89
2021/07/02 15:01:58;;;;;;;;;;;;;;;;;;4960313;28;19921;-89
2021/07/02 15:04:23;;;;;;;;;;;;;;;;;;4957923;28;19922;-89
2021/07/02 15:06:48;;;;;;;;;;;;;;;;;;4973962;28;20013;-89
2021/07/02 15:09:13;;;;;;;;;;;;;;;;;;4957785;28;19918;-89
2021/07/02 15:11:39;;;;;;;;;;;;;;;;;;4958009;28;19918;-87
2021/07/02 15:14:04;;;;;;;;;;;;;;;;;;4973907;28;19918;-87
2021/07/02 15:16:32;;;;;;;;;;;;;;;;;;4977874;28;20337;-88
2021/07/02 15:18:57;;;;;;;;;;;;;;;;;;4964482;28;19921;-88
2021/07/02 15:21:23;;;;;;;;;;;;;;;;;;4962330;28;19921;-88
2021/07/02 15:23:48;;;;;;;;;;;;;;;;;;4978806;28;19957;-88
2021/07/02 15:26:13;;;;;;;;;;;;;;;;;;4958619;28;19925;-87
2021/07/02 15:28:38;;;;;;;;;;;;;;;;;;4955202;28;19926;-87
2021/07/02 15:31:23;;;;;;;;;;;;;;;;;;4956875;28;19914;-88
2021/07/02 15:33:48;;;;;;;;;;;;;;;;;;4972769;28;19957;-86
2021/07/02 15:36:14;;;;;;;;;;;;;;;;;;4958433;28;20004;-91
2021/07/02 15:38:39;;;;;;;;;;;;;;;;;;4959477;28;19914;-91
2021/07/02 15:41:06;;;;;;;;;;;;;;;;;;4961780;28;20712;-90
2021/07/02 15:43:31;;;;;;;;;;;;;;;;;;4964486;28;19914;-88
2021/07/02 15:45:56;;;;;;;;;;;;;;;;;;4960791;28;19969;-86
2021/07/02 15:48:22;;;;;;;;;;;;;;;;;;4962201;28;19918;-86
2021/07/02 15:50:47;;;;;;;;;;;;;;;;;;4960492;28;19918;-86
2021/07/02 15:53:12;;;;;;;;;;;;;;;;;;4973046;28;19921;-89
2021/07/02 15:55:38;;;;;;;;;;;;;;;;;;4973246;28;19922;-91
2021/07/02 15:58:03;;;;;;;;;;;;;;;;;;4958376;28;19925;-91
2021/07/02 16:00:28;;;;;;;;;;;;;;;;;;4958353;28;19961;-90
2021/07/02 16:02:53;;;;;;;;;;;;;;;;;;4956329;28;20300;-89
2021/07/02 16:05:20;;;;;;;;;;;;;;;;;;4957964;28;19918;-90
2021/07/02 16:07:45;;;;;;;;;;;;;;;;;;4984787;23;19930;-76
2021/07/02 16:10:10;;;;;;;;;;;;;;;;;;4992866;28;19918;-75
2021/07/02 16:12:36;;;;;;;;;;;;;;;;;;4992979;28;20358;-75
2021/07/02 16:15:04;;;;;;;;;;;;;;;;;;4993028;28;20005;-75
2021/07/02 16:17:31;;;;;;;;;;;;;;;;;;4976899;28;19921;-77
2021/07/02 16:19:56;;;;;;;;;;;;;;;;;;4977148;28;19918;-77
2021/07/02 16:22:21;;;;;;;;;;;;;;;;;;4993397;28;19914;-77
2021/07/02 16:24:47;;;;;;;;;;;;;;;;;;4995026;28;19921;-77
2021/07/02 16:27:12;;;;;;;;;;;;;;;;;;4997237;28;19921;-77
2021/07/02 16:29:37;;;;;;;;;;;;;;;;;;4980823;28;19914;-77
2021/07/02 16:32:02;;;;;;;;;;;;;;;;;;4997404;28;20044;-77
2021/07/02 16:34:28;;;;;;;;;;;;;;;;;;4997412;28;20404;-77
2021/07/02 16:36:53;;;;;;;;;;;;;;;;;;4980927;28;20300;-77
2021/07/02 16:39:18;;;;;;;;;;;;;;;;;;4980790;28;19937;-77
2021/07/02 16:41:43;;;;;;;;;;;;;;;;;;4997022;28;19918;-77
2021/07/02 16:44:08;;;;;;;;;;;;;;;;;;4980851;28;19913;-77
2021/07/02 16:46:34;;;;;;;;;;;;;;;;;;4997068;28;19918;-77
2021/07/02 16:48:59;;;;;;;;;;;;;;;;;;4996933;28;19921;-77
2021/07/02 16:51:25;;;;;;;;;;;;;;;;;;4996714;28;20364;-77
2021/07/02 16:53:50;;;;;;;;;;;;;;;;;;4997029;28;19921;-77
2021/07/02 16:56:15;;;;;;;;;;;;;;;;;;4996822;28;19914;-77
2021/07/02 16:58:41;;;;;;;;;;;;;;;;;;4980383;28;19914;-77
2021/07/02 17:01:06;;;;;;;;;;;;;;;;;;4980177;28;19924;-77
2021/07/02 17:03:31;;;;;;;;;;;;;;;;;;4996650;28;20300;-77
2021/07/02 17:05:56;;;;;;;;;;;;;;;;;;4980192;28;19921;-77
2021/07/02 17:08:22;;;;;;;;;;;;;;;;;;4996520;28;20392;-77
2021/07/02 17:10:47;;;;;;;;;;;;;;;;;;4996373;28;19914;-77
2021/07/02 17:13:12;;;;;;;;;;;;;;;;;;4996461;28;19921;-77